Time;durP1;ratioP1;P1;durP2;ratioP2;P2;SDS_P1;SDS_P2;PMS_P1;PMS_P2;Temp;Humidity;BMP_temperature;BMP_pressure;BME280_temperature;BME280_humidity;BME280_pressure;Samples;Min_cycle;Max_cycle;Signal;HPM_P1;HPM_P2
2023/05/13 00:01:28;;;;;;;;;;;;;;;21.27;51.10;102080.31;5052138;28;19924;-71
2023/05/13 00:03:53;;;;;;;;;;;;;;;21.26;50.80;102084.88;5054099;28;19920;-71
2023/05/13 00:06:18;;;;;;;;;;;;;;;21.25;51.01;102085.88;5050956;28;19913;-71
2023/05/13 00:08:43;;;;;;;;;;;;;;;21.25;50.79;102085.03;5050672;28;19916;-71
2023/05/13 00:11:09;;;;;;;;;;;;;;;21.24;50.94;102084.19;5030698;28;19956;-71
2023/05/13 00:13:34;;;;;;;;;;;;;;;21.23;50.73;102088.72;5044360;28;20388;-71
2023/05/13 00:15:59;;;;;;;;;;;;;;;21.23;50.69;102087.88;5053777;28;19921;-70
2023/05/13 00:18:24;;;;;;;;;;;;;;;21.22;50.59;102078.91;5047497;28;19913;-71
2023/05/13 00:20:50;;;;;;;;;;;;;;;21.21;50.72;102079.06;5038026;28;19917;-71
2023/05/13 00:23:15;;;;;;;;;;;;;;;21.21;50.83;102081.78;5054575;28;19917;-71
2023/05/13 00:25:42;;;;;;;;;;;;;;;21.21;50.63;102089.91;5051764;28;20508;-71
2023/05/13 00:28:08;;;;;;;;;;;;;;;21.20;50.50;102080.94;5053378;28;19955;-71
2023/05/13 00:30:33;;;;;;;;;;;;;;;21.19;50.59;102081.06;5042553;28;19917;-71
2023/05/13 00:32:58;;;;;;;;;;;;;;;21.20;50.65;102082.78;5049949;28;19917;-71
2023/05/13 00:35:23;;;;;;;;;;;;;;;21.18;50.64;102072.13;5046565;28;20004;-71
2023/05/13 00:37:49;;;;;;;;;;;;;;;21.18;50.51;102080.22;5050049;28;19963;-71
2023/05/13 00:40:21;;;;;;;;;;;;;;;21.17;50.29;102080.41;5031347;28;19982;-71
2023/05/13 00:42:46;;;;;;;;;;;;;;;21.16;50.53;102078.69;5044225;28;19916;-71
2023/05/13 00:45:11;;;;;;;;;;;;;;;21.16;50.71;102078.69;5030669;28;20393;-71
2023/05/13 00:47:37;;;;;;;;;;;;;;;21.16;50.39;102089.53;5053675;28;19936;-71
2023/05/13 00:50:02;;;;;;;;;;;;;;;21.16;50.40;102084.09;5053241;28;19924;-71
2023/05/13 00:52:27;;;;;;;;;;;;;;;21.14;50.44;102072.56;5031738;28;19952;-71
2023/05/13 00:54:53;;;;;;;;;;;;;;;21.15;50.36;102076.97;5024093;28;19913;-71
2023/05/13 00:57:18;;;;;;;;;;;;;;;21.13;50.28;102074.44;5046834;28;19921;-71
2023/05/13 00:59:43;;;;;;;;;;;;;;;21.12;50.39;102072.75;5051291;28;19917;-71
2023/05/13 01:02:08;;;;;;;;;;;;;;;21.13;50.04;102079.00;5050190;28;19914;-71
2023/05/13 01:04:41;;;;;;;;;;;;;;;21.11;50.38;102071.06;5052213;28;19920;-71
2023/05/13 01:07:11;;;;;;;;;;;;;;;21.11;50.25;102072.88;5046313;28;19913;-70
2023/05/13 01:09:56;;;;;;;;;;;;;;;21.11;50.05;102078.28;5043805;28;20099;-71
2023/05/13 01:12:25;;;;;;;;;;;;;;;21.10;50.27;102076.59;5045998;28;20267;-71
2023/05/13 01:14:55;;;;;;;;;;;;;;;21.10;49.97;102082.00;5022990;28;19921;-71
2023/05/13 01:17:28;;;;;;;;;;;;;;;21.08;50.19;102075.91;5036934;28;19952;-71
2023/05/13 01:19:56;;;;;;;;;;;;;;;21.06;50.18;102072.50;5047936;28;19917;-71
2023/05/13 01:22:21;;;;;;;;;;;;;;;21.06;50.15;102075.22;5045311;28;19921;-71
2023/05/13 01:24:47;;;;;;;;;;;;;;;21.05;50.11;102081.63;5046198;28;20076;-71
2023/05/13 01:27:12;;;;;;;;;;;;;;;21.05;50.20;102079.78;5054536;28;19917;-71
2023/05/13 01:29:39;;;;;;;;;;;;;;;21.04;50.02;102088.03;5051521;28;19966;-72
2023/05/13 01:32:05;;;;;;;;;;;;;;;21.02;50.06;102080.06;5037049;28;19921;-71
2023/05/13 01:34:30;;;;;;;;;;;;;;;21.02;50.16;102079.22;5036648;28;19955;-71
2023/05/13 01:36:56;;;;;;;;;;;;;;;21.01;50.14;102077.53;5046903;28;20495;-71
2023/05/13 01:39:21;;;;;;;;;;;;;;;20.98;50.10;102078.69;5036756;28;19917;-71
2023/05/13 01:41:46;;;;;;;;;;;;;;;20.97;50.03;102079.69;5047712;28;19913;-71
2023/05/13 01:44:11;;;;;;;;;;;;;;;20.95;50.02;102074.44;5038547;28;19917;-71
2023/05/13 01:46:41;;;;;;;;;;;;;;;20.95;49.84;102077.16;5044968;28;19916;-71
2023/05/13 01:49:08;;;;;;;;;;;;;;;20.94;50.01;102080.88;5042720;28;20250;-71
2023/05/13 01:51:33;;;;;;;;;;;;;;;20.94;50.13;102077.28;5035483;28;19985;-71
2023/05/13 01:53:58;;;;;;;;;;;;;;;20.94;49.83;102090.78;5054217;28;19916;-70
2023/05/13 01:56:23;;;;;;;;;;;;;;;20.92;49.84;102087.41;5054104;28;19921;-71
2023/05/13 01:58:49;;;;;;;;;;;;;;;20.91;50.06;102083.88;5051571;28;19917;-71
2023/05/13 02:01:14;;;;;;;;;;;;;;;20.91;49.91;102091.13;5047228;28;19917;-71
2023/05/13 02:03:39;;;;;;;;;;;;;;;20.90;49.86;102087.59;5038120;28;19921;-71
2023/05/13 02:06:04;;;;;;;;;;;;;;;20.90;50.00;102089.44;5050132;28;20352;-70
2023/05/13 02:08:30;;;;;;;;;;;;;;;20.89;49.93;102090.41;5033244;28;19920;-71
2023/05/13 02:10:55;;;;;;;;;;;;;;;20.88;49.68;102086.03;5055256;28;20448;-70
2023/05/13 02:13:21;;;;;;;;;;;;;;;20.89;49.70;102090.41;5032235;28;19929;-71
2023/05/13 02:15:46;;;;;;;;;;;;;;;20.87;49.81;102085.19;5046457;28;19917;-71
2023/05/13 02:18:11;;;;;;;;;;;;;;;20.86;49.61;102091.59;5054116;28;19920;-70
2023/05/13 02:20:36;;;;;;;;;;;;;;;20.87;49.89;102089.72;5050929;28;19920;-70
2023/05/13 02:23:01;;;;;;;;;;;;;;;20.87;49.75;102097.84;5055967;28;19960;-71
2023/05/13 02:25:27;;;;;;;;;;;;;;;20.86;49.82;102093.44;5050991;28;19913;-71
2023/05/13 02:27:52;;;;;;;;;;;;;;;20.84;49.85;102090.88;5051419;28;20028;-71
2023/05/13 02:30:17;;;;;;;;;;;;;;;20.85;49.49;102086.31;5032749;28;19924;-71
2023/05/13 02:32:42;;;;;;;;;;;;;;;20.84;49.69;102090.88;5037582;28;19921;-70
2023/05/13 02:35:08;;;;;;;;;;;;;;;20.84;49.64;102093.56;5050046;28;19920;-71
2023/05/13 02:37:33;;;;;;;;;;;;;;;20.83;49.61;102091.03;5051895;28;19969;-71
2023/05/13 02:39:58;;;;;;;;;;;;;;;20.83;49.66;102089.19;5051615;28;19920;-71
2023/05/13 02:42:24;;;;;;;;;;;;;;;20.82;49.75;102084.78;5043624;28;19913;-71
2023/05/13 02:44:49;;;;;;;;;;;;;;;20.82;49.49;102089.34;5038076;28;19917;-71
2023/05/13 02:47:14;;;;;;;;;;;;;;;20.81;49.39;102088.47;5046250;28;20669;-71
2023/05/13 02:49:40;;;;;;;;;;;;;;;20.81;49.55;102088.47;5056700;28;19998;-71
2023/05/13 02:52:05;;;;;;;;;;;;;;;20.80;49.72;102077.81;5031259;28;19917;-71
2023/05/13 02:54:30;;;;;;;;;;;;;;;20.79;49.41;102076.13;5050242;28;19960;-70
2023/05/13 02:56:55;;;;;;;;;;;;;;;20.79;49.49;102081.53;5052313;28;19913;-71
2023/05/13 02:59:20;;;;;;;;;;;;;;;20.79;49.48;102084.25;5051391;28;19945;-71
2023/05/13 03:01:46;;;;;;;;;;;;;;;20.77;49.61;102081.66;5035112;28;19917;-71
2023/05/13 03:04:11;;;;;;;;;;;;;;;20.77;49.49;102081.66;5051697;28;19928;-70
2023/05/13 03:06:36;;;;;;;;;;;;;;;20.76;49.39;102082.69;5051874;28;19914;-71
2023/05/13 03:09:01;;;;;;;;;;;;;;;20.77;49.58;102075.41;5053382;28;19967;-71
2023/05/13 03:11:26;;;;;;;;;;;;;;;20.75;49.39;102072.88;5056539;28;20282;-71
2023/05/13 03:13:52;;;;;;;;;;;;;;;20.75;49.20;102072.03;5048929;28;19921;-71
2023/05/13 03:16:17;;;;;;;;;;;;;;;20.73;49.13;102077.59;5044103;28;19916;-71
2023/05/13 03:18:42;;;;;;;;;;;;;;;20.72;49.08;102079.44;5033715;28;19913;-70
2023/05/13 03:21:07;;;;;;;;;;;;;;;20.72;49.42;102076.72;5031061;28;19914;-70
2023/05/13 03:23:32;;;;;;;;;;;;;;;20.72;49.13;102073.16;5052333;28;19917;-71
2023/05/13 03:25:57;;;;;;;;;;;;;;;20.70;49.18;102078.75;5050128;28;19959;-71
2023/05/13 03:28:23;;;;;;;;;;;;;;;20.71;49.33;102079.59;5048883;28;19962;-71
2023/05/13 03:30:48;;;;;;;;;;;;;;;20.69;49.14;102078.91;5032650;28;20404;-71
2023/05/13 03:33:13;;;;;;;;;;;;;;;20.68;49.31;102082.59;5036287;28;19917;-70
2023/05/13 03:35:39;;;;;;;;;;;;;;;20.68;49.22;102085.28;5048777;28;19963;-70
2023/05/13 03:38:04;;;;;;;;;;;;;;;20.66;49.05;102081.91;5053047;28;19923;-70
2023/05/13 03:40:29;;;;;;;;;;;;;;;20.66;49.31;102081.91;5051298;28;19917;-71
2023/05/13 03:42:54;;;;;;;;;;;;;;;20.64;49.30;102084.72;5029977;28;19917;-71
2023/05/13 03:45:20;;;;;;;;;;;;;;;20.64;49.00;102082.03;5052894;28;19920;-71
2023/05/13 03:47:45;;;;;;;;;;;;;;;20.63;49.11;102083.03;5044643;28;19921;-70
2023/05/13 03:50:10;;;;;;;;;;;;;;;20.63;49.26;102080.34;5053654;28;20360;-71
2023/05/13 03:52:36;;;;;;;;;;;;;;;20.62;49.17;102083.22;5022819;28;19924;-71
2023/05/13 03:55:01;;;;;;;;;;;;;;;20.61;49.12;102087.75;5029882;28;19981;-70
2023/05/13 03:57:26;;;;;;;;;;;;;;;20.61;49.22;102081.50;5018389;28;19925;-71
2023/05/13 03:59:51;;;;;;;;;;;;;;;20.60;49.16;102085.19;5044213;28;19939;-71
2023/05/13 04:02:17;;;;;;;;;;;;;;;20.59;49.24;102083.50;5050462;28;19921;-71
2023/05/13 04:04:42;;;;;;;;;;;;;;;20.58;48.89;102087.22;5054257;28;19917;-71
2023/05/13 04:07:07;;;;;;;;;;;;;;;20.57;49.19;102085.53;5051058;28;19919;-71
2023/05/13 04:09:32;;;;;;;;;;;;;;;20.57;48.90;102090.91;5052664;28;19921;-71
2023/05/13 04:11:58;;;;;;;;;;;;;;;20.55;48.86;102088.34;5055903;28;19976;-71
2023/05/13 04:14:23;;;;;;;;;;;;;;;20.55;48.89;102095.63;5050394;28;19987;-71
2023/05/13 04:16:48;;;;;;;;;;;;;;;20.54;48.86;102094.75;5050658;28;19913;-71
2023/05/13 04:19:13;;;;;;;;;;;;;;;20.54;49.08;102093.91;5049578;28;20414;-71
2023/05/13 04:21:38;;;;;;;;;;;;;;;20.54;48.95;102092.06;5049294;28;19913;-71
2023/05/13 04:24:04;;;;;;;;;;;;;;;20.52;49.14;102094.06;5031333;28;19923;-72
2023/05/13 04:26:29;;;;;;;;;;;;;;;20.52;49.21;102107.59;5056808;28;19917;-72
2023/05/13 04:28:54;;;;;;;;;;;;;;;20.52;48.86;102109.41;5047275;28;19917;-71
2023/05/13 04:31:20;;;;;;;;;;;;;;;20.52;48.92;102109.41;5051505;28;19919;-71
2023/05/13 04:33:45;;;;;;;;;;;;;;;20.52;48.99;102098.59;5052388;28;19916;-71
2023/05/13 04:36:10;;;;;;;;;;;;;;;20.51;49.34;102110.41;5031256;28;19923;-71
2023/05/13 04:38:35;;;;;;;;;;;;;;;20.51;49.03;102099.59;5057368;28;20633;-71
2023/05/13 04:41:01;;;;;;;;;;;;;;;20.50;49.17;102112.28;5049054;28;19917;-72
2023/05/13 04:43:26;;;;;;;;;;;;;;;20.50;49.40;102114.97;5052245;28;19988;-72
2023/05/13 04:45:51;;;;;;;;;;;;;;;20.50;48.95;102112.28;5051518;28;19921;-71
2023/05/13 04:48:16;;;;;;;;;;;;;;;20.50;49.39;102117.69;5052134;28;19948;-74
2023/05/13 04:50:45;;;;;;;;;;;;;;;20.51;49.13;102126.63;5049719;28;19913;-72
2023/05/13 04:53:10;;;;;;;;;;;;;;;20.49;49.42;102121.38;5043225;28;20375;-73
2023/05/13 04:55:35;;;;;;;;;;;;;;;20.50;49.50;102122.22;5056887;28;20505;-72
2023/05/13 04:58:01;;;;;;;;;;;;;;;20.49;49.33;102126.78;5058185;28;19988;-71
2023/05/13 05:00:26;;;;;;;;;;;;;;;20.50;49.41;102124.94;5053813;28;20637;-70
2023/05/13 05:02:51;;;;;;;;;;;;;;;20.49;49.50;102121.38;5047369;28;19932;-73
2023/05/13 05:05:16;;;;;;;;;;;;;;;20.50;49.55;102133.03;5055106;28;19948;-71
2023/05/13 05:07:41;;;;;;;;;;;;;;;20.50;49.64;102136.59;5050053;28;19929;-73
2023/05/13 05:10:07;;;;;;;;;;;;;;;20.50;49.62;102133.03;5049486;28;19996;-71
2023/05/13 05:12:32;;;;;;;;;;;;;;;20.50;50.06;102136.59;5052928;28;19928;-71
2023/05/13 05:14:57;;;;;;;;;;;;;;;20.50;49.96;102139.28;5049281;28;19924;-71
2023/05/13 05:17:23;;;;;;;;;;;;;;;20.50;49.78;102139.28;5052832;28;19913;-69
2023/05/13 05:19:48;;;;;;;;;;;;;;;20.52;50.03;102141.84;5029338;28;20578;-68
2023/05/13 05:22:13;;;;;;;;;;;;;;;20.50;49.79;102135.75;5053058;28;19930;-71
2023/05/13 05:24:38;;;;;;;;;;;;;;;20.51;49.80;102140.97;5055386;28;20344;-71
2023/05/13 05:27:03;;;;;;;;;;;;;;;20.51;49.80;102148.25;5052056;28;19925;-72
2023/05/13 05:29:28;;;;;;;;;;;;;;;20.50;49.92;102141.16;5048795;28;19924;-71
2023/05/13 05:31:54;;;;;;;;;;;;;;;20.50;49.92;102141.16;5052960;28;19932;-71
2023/05/13 05:34:19;;;;;;;;;;;;;;;20.50;50.12;102143.84;5037872;28;19921;-71
2023/05/13 05:36:44;;;;;;;;;;;;;;;20.49;49.98;102140.31;5051184;28;19924;-72
2023/05/13 05:39:09;;;;;;;;;;;;;;;20.50;50.13;102146.56;5056469;28;19967;-71
2023/05/13 05:41:35;;;;;;;;;;;;;;;20.49;50.13;102145.69;5050379;28;19920;-71
2023/05/13 05:44:00;;;;;;;;;;;;;;;20.50;50.04;102151.94;5048966;28;19921;-72
2023/05/13 05:46:25;;;;;;;;;;;;;;;20.49;50.17;102152.97;5052514;28;19913;-72
2023/05/13 05:48:50;;;;;;;;;;;;;;;20.49;49.90;102153.81;5034877;28;19932;-72
2023/05/13 05:51:15;;;;;;;;;;;;;;;20.49;50.21;102151.09;5056982;28;19935;-71
2023/05/13 05:53:41;;;;;;;;;;;;;;;20.48;50.23;102157.50;5052091;28;19924;-71
2023/05/13 05:56:06;;;;;;;;;;;;;;;20.48;50.24;102162.91;5052320;28;19917;-71
2023/05/13 05:58:31;;;;;;;;;;;;;;;20.49;50.25;102163.78;5051965;28;19917;-71
2023/05/13 06:00:57;;;;;;;;;;;;;;;20.49;50.10;102164.63;5058313;28;19913;-71
2023/05/13 06:03:22;;;;;;;;;;;;;;;20.47;50.04;102159.34;5045446;28;19924;-70
2023/05/13 06:05:47;;;;;;;;;;;;;;;20.47;49.95;102162.03;5058994;28;19916;-70
2023/05/13 06:08:12;;;;;;;;;;;;;;;20.47;50.27;102169.25;5053118;28;19963;-70
2023/05/13 06:10:38;;;;;;;;;;;;;;;20.47;50.13;102155.75;5052227;28;19917;-70
2023/05/13 06:13:03;;;;;;;;;;;;;;;20.46;50.06;102160.31;5055392;28;20398;-70
2023/05/13 06:15:28;;;;;;;;;;;;;;;20.47;50.23;102166.56;5053953;28;19917;-70
2023/05/13 06:17:54;;;;;;;;;;;;;;;20.45;50.06;102158.63;5032757;28;19967;-70
2023/05/13 06:20:19;;;;;;;;;;;;;;;20.45;50.13;102161.31;5050981;28;20374;-72
2023/05/13 06:22:44;;;;;;;;;;;;;;;20.45;50.00;102165.88;5053164;28;19917;-71
2023/05/13 06:25:09;;;;;;;;;;;;;;;20.45;50.04;102169.44;5050786;28;19923;-71
2023/05/13 06:27:35;;;;;;;;;;;;;;;20.45;50.00;102166.72;5041032;28;19956;-72
2023/05/13 06:30:00;;;;;;;;;;;;;;;20.45;49.61;102164.03;5052142;28;19960;-72
2023/05/13 06:32:25;;;;;;;;;;;;;;;20.45;49.97;102166.72;5056279;28;19924;-73
2023/05/13 06:34:51;;;;;;;;;;;;;;;20.46;49.87;102167.56;5055773;28;19931;-73
2023/05/13 06:37:16;;;;;;;;;;;;;;;20.45;49.94;102169.44;5037229;28;19924;-74
2023/05/13 06:39:41;;;;;;;;;;;;;;;20.45;49.84;102157.78;5025650;28;19917;-76
2023/05/13 06:42:06;;;;;;;;;;;;;;;20.45;50.24;102165.88;5044121;28;19918;-72
2023/05/13 06:44:32;;;;;;;;;;;;;;;20.45;49.76;102173.97;5049953;28;19913;-72
2023/05/13 06:46:57;;;;;;;;;;;;;;;20.44;49.93;102167.72;5037149;28;19917;-71
2023/05/13 06:49:25;;;;;;;;;;;;;;;20.44;50.19;102173.13;5035798;28;19917;-71
2023/05/13 06:51:50;;;;;;;;;;;;;;;20.43;50.15;102168.75;5052987;28;19919;-71
2023/05/13 06:54:15;;;;;;;;;;;;;;;20.44;49.97;102169.59;5053786;28;19916;-71
2023/05/13 06:56:41;;;;;;;;;;;;;;;20.43;50.10;102168.75;5052544;28;19916;-72
2023/05/13 06:59:06;;;;;;;;;;;;;;;20.43;50.03;102168.75;5052860;28;19943;-71
2023/05/13 07:01:31;;;;;;;;;;;;;;;20.42;50.15;102167.00;5056518;28;19986;-71
2023/05/13 07:03:56;;;;;;;;;;;;;;;20.42;49.91;102169.72;5050028;28;19917;-71
2023/05/13 07:06:21;;;;;;;;;;;;;;;20.43;50.24;102165.16;5054199;28;20385;-72
2023/05/13 07:08:46;;;;;;;;;;;;;;;20.42;49.95;102168.88;5053591;28;19928;-72
2023/05/13 07:11:12;;;;;;;;;;;;;;;20.43;49.90;102170.56;5036510;28;19992;-72
2023/05/13 07:13:37;;;;;;;;;;;;;;;20.43;49.81;102167.84;5050957;28;19924;-72
2023/05/13 07:16:02;;;;;;;;;;;;;;;20.42;49.90;102167.00;5053734;28;19921;-72
2023/05/13 07:18:28;;;;;;;;;;;;;;;20.44;49.71;102172.28;5048759;28;19956;-72
2023/05/13 07:20:55;;;;;;;;;;;;;;;20.43;50.22;102163.34;5050941;28;19988;-71
2023/05/13 07:23:20;;;;;;;;;;;;;;;20.44;50.13;102164.19;5034986;28;19913;-72
2023/05/13 07:25:45;;;;;;;;;;;;;;;20.45;49.88;102168.56;5049917;28;19923;-72
2023/05/13 07:28:10;;;;;;;;;;;;;;;20.45;50.18;102164.03;5056301;28;19917;-72
2023/05/13 07:30:38;;;;;;;;;;;;;;;20.45;49.69;102166.72;5051970;28;19916;-72
2023/05/13 07:33:04;;;;;;;;;;;;;;;20.46;49.94;102162.16;5051800;28;19948;-72
2023/05/13 07:35:29;;;;;;;;;;;;;;;20.46;49.75;102176.53;5054365;28;19921;-72
2023/05/13 07:37:55;;;;;;;;;;;;;;;20.46;49.86;102168.41;5031018;28;19917;-71
2023/05/13 07:40:20;;;;;;;;;;;;;;;20.46;49.99;102168.41;5051485;28;20040;-72
2023/05/13 07:42:45;;;;;;;;;;;;;;;20.46;49.84;102173.81;5049021;28;19925;-72
2023/05/13 07:45:10;;;;;;;;;;;;;;;20.45;49.79;102172.13;5050727;28;19917;-72
2023/05/13 07:47:36;;;;;;;;;;;;;;;20.47;49.87;102171.97;5051238;28;19917;-73
2023/05/13 07:50:01;;;;;;;;;;;;;;;20.46;49.97;102167.56;5052307;28;19931;-72
2023/05/13 07:52:26;;;;;;;;;;;;;;;20.46;50.00;102173.81;5052892;28;20380;-72
2023/05/13 07:54:51;;;;;;;;;;;;;;;20.46;49.93;102176.53;5057439;28;19944;-72
2023/05/13 07:57:17;;;;;;;;;;;;;;;20.46;50.20;102170.28;5052799;28;19983;-73
2023/05/13 07:59:42;;;;;;;;;;;;;;;20.46;50.22;102168.41;5051722;28;20404;-72
2023/05/13 08:02:07;;;;;;;;;;;;;;;20.45;49.97;102164.03;5054956;28;19923;-72
2023/05/13 08:04:33;;;;;;;;;;;;;;;20.46;50.20;102164.88;5049685;28;19913;-71
2023/05/13 08:07:00;;;;;;;;;;;;;;;20.46;50.15;102175.69;5020676;28;19917;-72
2023/05/13 08:09:25;;;;;;;;;;;;;;;20.46;50.09;102171.13;5047012;28;19921;-72
2023/05/13 08:11:50;;;;;;;;;;;;;;;20.45;49.92;102172.13;5048449;28;19916;-72
2023/05/13 08:14:15;;;;;;;;;;;;;;;20.46;50.26;102176.53;5038680;28;19928;-73
2023/05/13 08:16:40;;;;;;;;;;;;;;;20.46;50.31;102179.22;5050936;28;19921;-72
2023/05/13 08:19:06;;;;;;;;;;;;;;;20.46;50.26;102181.94;5047545;28;19917;-72
2023/05/13 08:21:31;;;;;;;;;;;;;;;20.46;50.43;102176.53;5051448;28;20423;-71
2023/05/13 08:23:56;;;;;;;;;;;;;;;20.46;50.03;102171.13;5053257;28;19955;-72
2023/05/13 08:26:22;;;;;;;;;;;;;;;20.46;50.00;102181.94;5032744;28;19913;-72
2023/05/13 08:28:47;;;;;;;;;;;;;;;20.46;50.15;102173.81;5038133;28;20078;-72
2023/05/13 08:31:12;;;;;;;;;;;;;;;20.47;49.95;102174.66;5030198;28;20438;-72
2023/05/13 08:33:40;;;;;;;;;;;;;;;20.47;50.42;102182.78;5044849;28;19913;-72
2023/05/13 08:36:05;;;;;;;;;;;;;;;20.47;50.47;102171.97;5032958;28;20374;-72
2023/05/13 08:38:32;;;;;;;;;;;;;;;20.47;50.49;102171.97;5032568;28;19956;-72
2023/05/13 08:40:57;;;;;;;;;;;;;;;20.47;50.19;102164.75;5048803;28;19943;-71
2023/05/13 08:43:23;;;;;;;;;;;;;;;20.47;50.37;102166.56;5050588;28;19963;-72
2023/05/13 08:45:49;;;;;;;;;;;;;;;20.47;50.42;102164.75;5031373;28;19913;-72
2023/05/13 08:48:15;;;;;;;;;;;;;;;20.48;50.45;102154.81;5045451;28;19913;-72
2023/05/13 08:50:40;;;;;;;;;;;;;;;20.48;50.11;102162.91;5037342;28;20564;-72
2023/05/13 08:53:05;;;;;;;;;;;;;;;20.49;50.35;102166.47;5047239;28;20311;-72
2023/05/13 08:55:31;;;;;;;;;;;;;;;20.49;50.37;102169.16;5042870;28;20008;-72
2023/05/13 08:57:56;;;;;;;;;;;;;;;20.49;50.23;102166.47;5032856;28;19913;-72
2023/05/13 09:00:21;;;;;;;;;;;;;;;20.49;50.29;102158.38;5027550;28;19917;-72
2023/05/13 09:02:46;;;;;;;;;;;;;;;20.49;50.48;102164.63;5034883;28;19917;-72
2023/05/13 09:05:12;;;;;;;;;;;;;;;20.49;50.23;102167.31;5030883;28;20007;-72
2023/05/13 09:07:37;;;;;;;;;;;;;;;20.50;50.15;102160.06;5043001;28;19950;-73
2023/05/13 09:10:03;;;;;;;;;;;;;;;20.50;50.46;102162.75;5054376;28;19924;-72
2023/05/13 09:12:44;;;;;;;;;;;;;;;20.50;50.20;102165.47;5028566;28;19991;-72
2023/05/13 09:15:13;;;;;;;;;;;;;;;20.50;50.31;102160.91;5026151;28;20007;-72
2023/05/13 09:17:39;;;;;;;;;;;;;;;20.51;50.34;102156.34;5037238;28;19913;-72
2023/05/13 09:20:08;;;;;;;;;;;;;;;20.52;50.31;102158.03;5026612;28;19935;-72
2023/05/13 09:22:33;;;;;;;;;;;;;;;20.52;50.41;102158.03;5040877;28;19925;-73
2023/05/13 09:24:58;;;;;;;;;;;;;;;20.51;50.61;102159.91;5041852;28;20032;-75
2023/05/13 09:27:34;;;;;;;;;;;;;;;20.51;50.27;102151.78;5037801;28;19917;-73
2023/05/13 09:29:59;;;;;;;;;;;;;;;20.53;50.40;102159.78;5036012;28;19917;-73
2023/05/13 09:32:25;;;;;;;;;;;;;;;20.52;50.35;102156.22;5034216;28;19925;-72
2023/05/13 09:34:50;;;;;;;;;;;;;;;20.53;50.27;102154.38;5028984;28;19917;-69
2023/05/13 09:37:16;;;;;;;;;;;;;;;20.54;50.80;102150.66;5033316;28;19917;-71
2023/05/13 09:39:42;;;;;;;;;;;;;;;20.54;50.73;102154.22;5035672;28;19921;-72
2023/05/13 09:42:16;;;;;;;;;;;;;;;20.55;50.75;102149.66;5031551;28;19921;-71
2023/05/13 09:44:42;;;;;;;;;;;;;;;20.56;50.70;102148.63;5038119;28;19960;-71
2023/05/13 09:47:10;;;;;;;;;;;;;;;20.57;50.78;102148.50;5030982;28;19936;-72
2023/05/13 09:49:36;;;;;;;;;;;;;;;20.56;50.99;102141.41;5034208;28;19913;-71
2023/05/13 09:52:01;;;;;;;;;;;;;;;20.58;51.26;102146.66;5035024;28;19981;-71
2023/05/13 09:54:30;;;;;;;;;;;;;;;20.58;51.36;102141.25;5032274;28;19925;-70
2023/05/13 09:57:00;;;;;;;;;;;;;;;20.60;51.55;102145.53;5035101;28;19920;-71
2023/05/13 09:59:25;;;;;;;;;;;;;;;20.60;51.41;102140.13;5032758;28;19921;-70
2023/05/13 10:01:52;;;;;;;;;;;;;;;20.61;51.51;102140.97;5035751;28;19918;-74
2023/05/13 10:04:17;;;;;;;;;;;;;;;20.62;51.46;102142.66;5017945;28;20330;-73
2023/05/13 10:06:43;;;;;;;;;;;;;;;20.63;51.53;102134.38;5033471;28;19948;-71
2023/05/13 10:09:08;;;;;;;;;;;;;;;20.65;51.95;102136.97;5029904;28;20007;-73
2023/05/13 10:11:34;;;;;;;;;;;;;;;20.65;51.95;102131.56;5033047;28;19952;-73
2023/05/13 10:14:01;;;;;;;;;;;;;;;20.66;51.89;102126.00;5051970;28;19975;-72
2023/05/13 10:16:26;;;;;;;;;;;;;;;20.69;52.10;102122.16;5036630;28;20373;-72
2023/05/13 10:18:51;;;;;;;;;;;;;;;20.70;51.98;102123.84;5047037;28;19913;-72
2023/05/13 10:21:17;;;;;;;;;;;;;;;20.70;52.04;102119.28;5052084;28;19917;-72
2023/05/13 10:23:43;;;;;;;;;;;;;;;20.71;52.27;102118.28;5039742;28;19915;-72
2023/05/13 10:26:08;;;;;;;;;;;;;;;20.72;52.19;102111.84;5032911;28;20266;-72
2023/05/13 10:28:33;;;;;;;;;;;;;;;20.74;52.19;102108.19;5045643;28;19917;-72
2023/05/13 10:30:58;;;;;;;;;;;;;;;20.75;52.12;102113.41;5038009;28;19953;-70
2023/05/13 10:33:23;;;;;;;;;;;;;;;20.76;51.92;102109.72;5051364;28;19913;-72
2023/05/13 10:35:56;;;;;;;;;;;;;;;20.77;52.37;102108.69;5045909;28;19936;-72
2023/05/13 10:38:21;;;;;;;;;;;;;;;20.79;52.17;102095.91;5034870;28;19917;-71
2023/05/13 10:40:49;;;;;;;;;;;;;;;20.80;52.38;102099.44;5051832;28;19943;-71
2023/05/13 10:43:18;;;;;;;;;;;;;;;20.82;52.04;102105.56;5050310;28;19924;-72
2023/05/13 10:45:45;;;;;;;;;;;;;;;20.84;52.39;102106.25;5057453;28;19919;-71
2023/05/13 10:48:10;;;;;;;;;;;;;;;20.86;52.21;102101.56;5043968;28;20386;-72
2023/05/13 10:50:36;;;;;;;;;;;;;;;20.87;52.12;102096.00;5058673;28;19984;-72
2023/05/13 10:53:05;;;;;;;;;;;;;;;20.89;52.00;102093.13;5051762;28;19913;-71
2023/05/13 10:55:31;;;;;;;;;;;;;;;20.91;51.98;102099.25;5045671;28;19931;-72
2023/05/13 10:58:02;;;;;;;;;;;;;;;20.92;51.90;102099.06;5036530;28;19917;-71
2023/05/13 11:00:31;;;;;;;;;;;;;;;20.92;51.66;102088.25;5052308;28;19960;-72
2023/05/13 11:02:56;;;;;;;;;;;;;;;20.94;51.87;102098.91;5021589;28;20289;-71
2023/05/13 11:05:22;;;;;;;;;;;;;;;20.96;51.71;102086.09;5031541;28;19921;-71
2023/05/13 11:07:54;;;;;;;;;;;;;;;20.97;51.48;102093.19;5051461;28;19913;-71
2023/05/13 11:10:28;;;;;;;;;;;;;;;20.98;51.36;102097.59;5036035;28;19913;-71
2023/05/13 11:13:05;;;;;;;;;;;;;;;21.01;51.52;102082.94;5055933;28;20000;-72
2023/05/13 11:15:44;;;;;;;;;;;;;;;21.03;51.62;102089.06;5032395;28;20353;-72
2023/05/13 11:18:10;;;;;;;;;;;;;;;21.03;51.40;102084.50;5044910;28;19997;-72
2023/05/13 11:20:38;;;;;;;;;;;;;;;21.04;51.46;102083.47;5050890;28;19921;-71
2023/05/13 11:23:03;;;;;;;;;;;;;;;21.04;51.70;102078.06;5052495;28;19975;-71
2023/05/13 11:25:28;;;;;;;;;;;;;;;21.06;51.45;102078.75;5053061;28;19917;-72
2023/05/13 11:27:53;;;;;;;;;;;;;;;21.08;51.40;102078.63;5050421;28;19913;-72
2023/05/13 11:30:22;;;;;;;;;;;;;;;21.10;51.58;102074.75;5050297;28;20366;-72
2023/05/13 11:32:55;;;;;;;;;;;;;;;21.12;51.65;102071.91;5052031;28;19912;-72
2023/05/13 11:35:20;;;;;;;;;;;;;;;21.14;51.51;102072.56;5033740;28;20018;-71
2023/05/13 11:37:45;;;;;;;;;;;;;;;21.15;51.68;102075.16;5049455;28;19964;-71
2023/05/13 11:40:11;;;;;;;;;;;;;;;21.17;51.79;102073.13;5054810;28;19919;-71
2023/05/13 11:42:37;;;;;;;;;;;;;;;21.19;51.66;102081.06;5027548;28;19952;-71
2023/05/13 11:45:03;;;;;;;;;;;;;;;21.21;51.48;102079.06;5057956;28;19917;-72
2023/05/13 11:47:28;;;;;;;;;;;;;;;21.22;51.57;102078.06;5027960;28;19935;-72
2023/05/13 11:49:54;;;;;;;;;;;;;;;21.24;51.64;102073.38;5054157;28;20290;-71
2023/05/13 11:52:19;;;;;;;;;;;;;;;21.26;51.68;102070.50;5054397;28;19972;-72
2023/05/13 11:54:47;;;;;;;;;;;;;;;21.27;51.57;102074.88;5049666;28;19925;-72
2023/05/13 11:57:14;;;;;;;;;;;;;;;21.28;51.66;102074.75;5050125;28;19955;-72
2023/05/13 11:59:39;;;;;;;;;;;;;;;21.31;51.64;102069.00;5030344;28;19941;-72
2023/05/13 12:02:04;;;;;;;;;;;;;;;21.34;51.53;102065.19;5056923;28;19924;-72
2023/05/13 12:04:29;;;;;;;;;;;;;;;21.34;51.55;102060.63;5032717;28;19976;-72
2023/05/13 12:06:55;;;;;;;;;;;;;;;21.36;51.64;102060.44;5037279;28;19913;-72
2023/05/13 12:09:23;;;;;;;;;;;;;;;21.38;51.61;102061.16;5042721;28;19935;-72
2023/05/13 12:11:49;;;;;;;;;;;;;;;21.39;51.54;102070.97;5054170;28;19917;-72
2023/05/13 12:14:14;;;;;;;;;;;;;;;21.40;51.49;102073.50;5037647;28;19992;-71
2023/05/13 12:16:41;;;;;;;;;;;;;;;21.42;51.60;102068.81;5031721;28;21296;-72
2023/05/13 12:19:06;;;;;;;;;;;;;;;21.45;51.64;102067.63;5037580;28;20317;-72
2023/05/13 12:21:33;;;;;;;;;;;;;;;21.46;51.68;102061.22;5030352;28;19970;-72
2023/05/13 12:23:58;;;;;;;;;;;;;;;21.48;51.57;102061.91;5032459;28;19925;-72
2023/05/13 12:26:24;;;;;;;;;;;;;;;21.49;51.81;102054.63;5050260;28;19913;-72
2023/05/13 12:28:55;;;;;;;;;;;;;;;21.52;51.49;102048.91;5049981;28;20358;-71